createdAt,value
2017-12-30T00:00:58.650Z,18.00
2017-12-30T00:03:24.895Z,15.67
2017-12-30T00:05:51.107Z,14.10
2017-12-30T00:08:17.288Z,13.43
2017-12-30T00:22:37.923Z,22.37
2017-12-30T00:25:04.179Z,23.37
2017-12-30T00:27:31.139Z,20.93
2017-12-30T00:29:57.617Z,8.70
2017-12-30T00:32:23.855Z,18.47
2017-12-30T00:34:50.045Z,18.87
2017-12-30T00:37:16.469Z,18.13
2017-12-30T00:39:42.665Z,15.53
2017-12-30T00:42:08.860Z,14.30
2017-12-30T00:44:35.022Z,18.40
2017-12-30T00:47:01.179Z,13.83
2017-12-30T00:49:27.375Z,16.83
2017-12-30T00:51:53.608Z,17.00
2017-12-30T00:54:19.774Z,21.10
2017-12-30T00:56:46.857Z,20.90
2017-12-30T00:59:13.081Z,14.63
2017-12-30T01:01:40.038Z,16.13
2017-12-30T01:07:03.429Z,17.40
2017-12-30T01:09:29.635Z,11.63
2017-12-30T01:11:56.041Z,16.10
2017-12-30T01:14:23.403Z,16.40
2017-12-30T01:16:49.660Z,21.17
2017-12-30T01:19:15.985Z,17.20
2017-12-30T01:21:43.108Z,12.90
2017-12-30T01:24:09.498Z,26.63
2017-12-30T01:30:00.501Z,23.87
2017-12-30T01:32:27.274Z,17.13
2017-12-30T01:34:53.550Z,19.20
2017-12-30T01:37:20.813Z,23.97
2017-12-30T01:39:47.091Z,21.00
2017-12-30T01:42:13.337Z,11.70
2017-12-30T01:44:39.554Z,23.67
2017-12-30T01:47:06.477Z,19.80
2017-12-30T01:49:32.671Z,17.07
2017-12-30T01:52:02.819Z,14.33
2017-12-30T01:54:28.986Z,17.37
2017-12-30T01:56:55.888Z,20.60
2017-12-30T01:59:22.066Z,17.70
2017-12-30T02:01:48.210Z,22.77
2017-12-30T02:04:14.398Z,23.20
2017-12-30T02:06:40.616Z,19.07
2017-12-30T02:09:06.832Z,18.93
2017-12-30T02:11:32.992Z,15.17
2017-12-30T02:31:58.036Z,29.17
2017-12-30T02:34:24.215Z,20.00
2017-12-30T02:36:50.377Z,18.90
2017-12-30T02:39:16.517Z,27.07
2017-12-30T02:41:42.673Z,25.20
2017-12-30T02:44:08.882Z,16.67
2017-12-30T02:46:35.895Z,21.13
2017-12-30T02:49:02.043Z,22.93
2017-12-30T02:51:28.246Z,22.00
2017-12-30T03:11:53.510Z,18.07
2017-12-30T03:14:19.674Z,21.23
2017-12-30T03:16:45.803Z,15.73
2017-12-30T03:19:11.928Z,12.97
2017-12-30T03:21:38.860Z,22.17
2017-12-30T03:24:05.032Z,18.67
2017-12-30T03:26:31.180Z,17.47
2017-12-30T03:28:57.357Z,21.83
2017-12-30T03:31:24.224Z,16.67
2017-12-30T03:51:48.487Z,20.07
2017-12-30T03:54:14.631Z,16.03
2017-12-30T03:56:40.774Z,13.97
2017-12-30T03:59:06.966Z,21.57
2017-12-30T04:01:33.122Z,15.77
2017-12-30T04:03:59.251Z,20.30
2017-12-30T04:06:25.541Z,17.73
2017-12-30T04:08:51.702Z,16.63
2017-12-30T04:11:17.853Z,16.60
2017-12-30T04:43:41.535Z,16.17
2017-12-30T04:46:07.684Z,17.10
2017-12-30T04:48:33.856Z,19.90
2017-12-30T04:51:00.008Z,18.27
2017-12-30T04:53:26.193Z,27.57
2017-12-30T04:55:52.338Z,17.17
2017-12-30T04:58:18.508Z,15.20
2017-12-30T05:00:45.400Z,18.97
2017-12-30T05:03:11.557Z,26.17
2017-12-30T05:08:31.461Z,20.17
2017-12-30T05:10:57.598Z,19.53
2017-12-30T05:13:23.772Z,19.83
2017-12-30T05:15:49.912Z,15.87
2017-12-30T05:18:16.063Z,21.93
2017-12-30T05:20:42.249Z,14.33
2017-12-30T05:23:08.415Z,21.90
2017-12-30T05:25:34.584Z,18.13
2017-12-30T05:45:55.036Z,21.17
2017-12-30T05:48:21.208Z,19.63
2017-12-30T05:50:47.361Z,22.67
2017-12-30T05:53:13.539Z,16.57
2017-12-30T05:55:40.452Z,20.60
2017-12-30T05:58:06.638Z,27.20
2017-12-30T06:00:32.812Z,19.53
2017-12-30T06:02:58.972Z,17.97
2017-12-30T06:17:33.524Z,17.87
2017-12-30T06:19:59.658Z,21.77
2017-12-30T06:22:25.877Z,20.70
2017-12-30T06:24:52.024Z,24.33
2017-12-30T06:27:18.901Z,21.77
2017-12-30T06:29:45.074Z,22.90
2017-12-30T06:32:11.241Z,25.27
2017-12-30T06:34:37.453Z,22.13
2017-12-30T06:37:04.352Z,23.67
2017-12-30T06:57:29.667Z,32.70
2017-12-30T06:59:55.829Z,26.37
2017-12-30T07:02:22.016Z,22.60
2017-12-30T07:04:48.918Z,23.43
2017-12-30T07:07:15.057Z,19.50
2017-12-30T07:09:41.182Z,17.77
2017-12-30T07:12:07.313Z,21.37
2017-12-30T07:14:33.548Z,19.80
2017-12-30T07:16:59.729Z,22.43
2017-12-30T07:22:19.804Z,20.50
2017-12-30T07:24:45.947Z,15.17
2017-12-30T07:27:12.175Z,19.13
2017-12-30T07:29:39.094Z,20.80
2017-12-30T07:32:05.273Z,20.13
2017-12-30T07:34:31.447Z,18.50
2017-12-30T07:36:57.592Z,15.03
2017-12-30T07:39:23.769Z,14.20
2017-12-30T07:44:44.164Z,14.97
2017-12-30T07:47:10.309Z,14.13
2017-12-30T07:49:36.505Z,14.30
2017-12-30T07:52:02.687Z,14.97
2017-12-30T07:54:28.859Z,13.90
2017-12-30T07:56:55.043Z,13.47
2017-12-30T07:59:21.245Z,11.03
2017-12-30T08:01:47.408Z,12.30
2017-12-30T08:04:15.532Z,8.40
2017-12-30T08:06:41.717Z,9.03
2017-12-30T08:09:07.910Z,7.83
2017-12-30T08:11:34.122Z,13.67
2017-12-30T08:14:00.276Z,11.13
2017-12-30T08:16:26.464Z,7.40
2017-12-30T08:18:53.379Z,9.93
2017-12-30T08:21:19.594Z,9.73
2017-12-30T08:23:45.761Z,9.43
2017-12-30T08:26:12.838Z,8.90
2017-12-30T08:28:39.773Z,9.73
2017-12-30T08:31:05.970Z,8.33
2017-12-30T08:33:32.133Z,10.57
2017-12-30T08:35:58.353Z,9.87
2017-12-30T08:38:24.548Z,7.93
2017-12-30T08:40:50.731Z,10.67
2017-12-30T08:43:16.950Z,8.10
2017-12-30T08:45:43.153Z,8.40
2017-12-30T08:48:09.468Z,8.50
2017-12-30T08:50:35.697Z,9.20
2017-12-30T08:53:02.677Z,10.20
2017-12-30T08:55:28.901Z,10.30
2017-12-30T08:57:55.120Z,10.23
2017-12-30T09:00:21.313Z,9.43
2017-12-30T09:02:47.534Z,10.53
2017-12-30T09:05:13.748Z,17.23
2017-12-30T09:07:39.931Z,19.23
2017-12-30T09:10:06.893Z,18.63
2017-12-30T09:12:33.343Z,22.10
2017-12-30T09:14:59.628Z,18.27
2017-12-30T09:17:25.798Z,26.47
2017-12-30T09:19:52.007Z,33.57
2017-12-30T09:22:18.234Z,28.23
2017-12-30T09:24:44.413Z,37.33
2017-12-30T09:27:10.623Z,45.70
2017-12-30T09:29:36.864Z,41.77
2017-12-30T09:32:03.832Z,46.43
2017-12-30T09:34:30.008Z,47.47
2017-12-30T09:36:56.224Z,44.50
2017-12-30T09:39:22.447Z,42.67
2017-12-30T09:41:48.802Z,33.37
2017-12-30T09:44:15.008Z,44.40
2017-12-30T09:46:41.201Z,34.37
2017-12-30T09:49:07.423Z,38.33
2017-12-30T09:51:33.592Z,30.37
2017-12-30T09:53:59.796Z,30.80
2017-12-30T09:56:25.982Z,39.53
2017-12-30T09:58:52.555Z,38.83
2017-12-30T10:01:19.690Z,35.17
2017-12-30T10:03:45.874Z,35.13
2017-12-30T10:06:12.106Z,38.93
2017-12-30T10:08:38.338Z,34.87
2017-12-30T10:11:04.552Z,36.93
2017-12-30T10:13:33.565Z,46.87
2017-12-30T10:15:59.732Z,49.30
2017-12-30T10:18:25.950Z,36.67
2017-12-30T10:20:52.251Z,47.67
2017-12-30T10:23:18.435Z,41.33
2017-12-30T10:25:44.883Z,44.47
2017-12-30T10:28:11.118Z,51.67
2017-12-30T10:30:37.322Z,49.87
2017-12-30T10:33:03.528Z,46.13
2017-12-30T10:35:29.773Z,55.73
2017-12-30T10:37:55.969Z,44.03
2017-12-30T10:40:22.239Z,41.83
2017-12-30T10:42:49.925Z,49.63
2017-12-30T10:45:16.933Z,51.77
2017-12-30T10:47:43.185Z,43.03
2017-12-30T10:50:09.376Z,35.73
2017-12-30T10:52:35.566Z,40.43
2017-12-30T10:55:01.801Z,41.23
2017-12-30T10:57:27.999Z,44.13
2017-12-30T10:59:54.193Z,41.70
2017-12-30T11:02:20.402Z,35.93
2017-12-30T11:04:46.806Z,45.07
2017-12-30T11:07:13.038Z,56.33
2017-12-30T11:09:39.261Z,50.97
2017-12-30T11:12:05.461Z,39.57
2017-12-30T11:14:31.657Z,49.13
2017-12-30T11:16:57.844Z,44.03
2017-12-30T11:19:24.771Z,35.90
2017-12-30T11:21:51.010Z,41.23
2017-12-30T11:24:17.208Z,35.97
2017-12-30T11:26:44.559Z,53.40
2017-12-30T11:29:10.811Z,42.20
2017-12-30T11:31:36.999Z,50.57
2017-12-30T11:34:03.195Z,52.00
2017-12-30T11:36:29.452Z,42.10
2017-12-30T11:38:55.693Z,49.53
2017-12-30T11:41:22.640Z,43.10
2017-12-30T11:43:48.848Z,47.13
2017-12-30T11:46:17.885Z,42.20
2017-12-30T11:48:44.891Z,31.27
2017-12-30T11:51:11.100Z,42.17
2017-12-30T11:53:37.333Z,35.13
2017-12-30T11:56:03.550Z,46.60
2017-12-30T11:58:29.706Z,44.03
2017-12-30T12:00:55.940Z,42.70
2017-12-30T12:03:22.211Z,41.27
2017-12-30T12:05:48.430Z,41.93
2017-12-30T12:08:14.607Z,44.37
2017-12-30T12:10:41.680Z,49.03
2017-12-30T12:13:08.643Z,35.23
2017-12-30T12:15:34.873Z,48.17
2017-12-30T12:18:01.058Z,35.43
2017-12-30T12:20:27.248Z,37.40
2017-12-30T12:22:53.416Z,43.27
2017-12-30T12:25:19.645Z,38.77
2017-12-30T12:27:46.500Z,34.37
2017-12-30T12:30:12.686Z,35.30
2017-12-30T12:32:38.881Z,41.20
2017-12-30T12:35:05.052Z,34.83
2017-12-30T12:37:31.248Z,39.07
2017-12-30T12:39:57.497Z,37.50
2017-12-30T12:42:23.691Z,31.93
2017-12-30T12:44:49.866Z,41.77
2017-12-30T12:47:16.152Z,45.87
2017-12-30T12:49:42.347Z,44.73
2017-12-30T12:52:08.522Z,40.97
2017-12-30T12:54:34.742Z,35.77
2017-12-30T12:57:00.943Z,47.33
2017-12-30T12:59:27.134Z,48.37
2017-12-30T13:01:53.427Z,39.17
2017-12-30T13:04:19.631Z,40.77
2017-12-30T13:06:45.834Z,51.07
2017-12-30T13:09:12.118Z,40.20
2017-12-30T13:11:38.346Z,37.17
2017-12-30T13:14:05.103Z,41.00
2017-12-30T13:16:30.788Z,50.10
2017-12-30T13:18:56.984Z,44.17
2017-12-30T13:21:23.200Z,38.20
2017-12-30T13:23:49.443Z,32.33
2017-12-30T13:26:16.047Z,41.87
2017-12-30T13:28:42.645Z,42.10
2017-12-30T13:31:09.388Z,47.17
2017-12-30T13:33:37.115Z,30.57
2017-12-30T13:36:03.552Z,37.47
2017-12-30T13:38:30.228Z,31.77
2017-12-30T13:40:56.807Z,35.13
2017-12-30T13:43:23.002Z,36.60
2017-12-30T13:45:49.218Z,35.83
2017-12-30T13:48:22.344Z,39.03
2017-12-30T13:50:48.616Z,48.53
2017-12-30T13:53:14.882Z,45.93
2017-12-30T13:55:41.083Z,41.37
2017-12-30T13:58:07.317Z,39.57
2017-12-30T14:00:33.532Z,44.57
2017-12-30T14:02:59.713Z,39.53
2017-12-30T14:05:25.962Z,40.07
2017-12-30T14:07:52.153Z,42.60
2017-12-30T14:10:18.385Z,41.67
2017-12-30T14:12:44.625Z,44.93
2017-12-30T14:15:11.604Z,43.43
2017-12-30T14:17:37.848Z,39.77
2017-12-30T14:20:04.083Z,38.90
2017-12-30T14:22:30.316Z,50.40
2017-12-30T14:24:56.518Z,28.37
2017-12-30T14:27:23.483Z,35.53
2017-12-30T14:29:49.733Z,27.90
2017-12-30T14:32:15.934Z,39.67
2017-12-30T14:34:42.170Z,44.70
2017-12-30T14:37:08.397Z,42.10
2017-12-30T14:39:35.104Z,38.23
2017-12-30T14:42:01.972Z,45.60
2017-12-30T14:44:28.625Z,34.77
2017-12-30T14:46:54.883Z,38.83
2017-12-30T14:49:21.148Z,34.00
2017-12-30T14:51:47.360Z,40.23
2017-12-30T14:54:13.641Z,34.80
2017-12-30T14:56:39.987Z,35.50
2017-12-30T14:59:06.285Z,40.57
2017-12-30T15:01:32.550Z,37.77
2017-12-30T15:03:58.769Z,34.90
2017-12-30T15:06:25.006Z,27.57
2017-12-30T15:08:51.361Z,29.60
2017-12-30T15:11:18.465Z,32.30
2017-12-30T15:13:44.707Z,27.90
2017-12-30T15:16:10.943Z,35.87
2017-12-30T15:18:37.246Z,31.63
2017-12-30T15:21:03.454Z,32.47
2017-12-30T15:23:29.733Z,36.53
2017-12-30T15:26:00.005Z,27.73
2017-12-30T15:28:26.330Z,36.83
2017-12-30T15:30:53.340Z,34.60
2017-12-30T15:33:19.693Z,27.60
2017-12-30T15:35:46.108Z,32.77
2017-12-30T15:38:12.534Z,30.50
2017-12-30T15:40:38.872Z,22.13
2017-12-30T15:43:05.275Z,35.37
2017-12-30T15:45:31.660Z,29.77
2017-12-30T15:47:58.110Z,40.83
2017-12-30T15:50:24.725Z,35.07
2017-12-30T15:52:51.217Z,37.37
2017-12-30T15:55:17.571Z,40.77
2017-12-30T15:57:43.980Z,41.97
2017-12-30T16:00:10.427Z,43.10
2017-12-30T16:02:36.842Z,32.83
2017-12-30T16:05:03.199Z,44.40
2017-12-30T16:07:29.394Z,35.43
2017-12-30T16:09:55.613Z,38.70
2017-12-30T16:12:21.795Z,36.43
2017-12-30T16:14:48.107Z,36.13
2017-12-30T16:17:15.115Z,38.70
2017-12-30T16:19:41.325Z,35.80
2017-12-30T16:22:07.492Z,34.47
2017-12-30T16:24:33.769Z,40.97
2017-12-30T16:26:59.997Z,34.50
2017-12-30T16:29:26.194Z,41.33
2017-12-30T16:31:52.406Z,46.93
2017-12-30T16:34:18.597Z,36.07
2017-12-30T16:36:44.817Z,37.83
2017-12-30T16:39:11.060Z,38.10
2017-12-30T16:41:37.304Z,34.90
2017-12-30T16:44:03.543Z,39.07
2017-12-30T16:46:29.742Z,35.37
2017-12-30T16:48:55.913Z,41.93
2017-12-30T16:51:22.163Z,32.97
2017-12-30T16:53:48.363Z,40.60
2017-12-30T16:56:14.578Z,40.73
2017-12-30T16:58:40.766Z,38.87
2017-12-30T17:01:06.963Z,34.50
2017-12-30T17:03:33.858Z,34.87
2017-12-30T17:06:00.707Z,28.47
2017-12-30T17:08:28.107Z,27.17
2017-12-30T17:10:55.571Z,35.03
2017-12-30T17:13:22.371Z,36.10
2017-12-30T17:15:48.957Z,26.23
2017-12-30T17:18:15.675Z,32.07
2017-12-30T17:20:42.292Z,28.77
2017-12-30T17:23:09.466Z,26.73
2017-12-30T17:25:35.948Z,37.53
2017-12-30T17:28:02.392Z,33.37
2017-12-30T17:30:28.861Z,32.87
2017-12-30T17:32:55.352Z,31.60
2017-12-30T17:35:22.826Z,35.57
2017-12-30T17:37:49.385Z,31.47
2017-12-30T17:40:15.965Z,36.20
2017-12-30T17:42:42.531Z,37.10
2017-12-30T17:45:09.819Z,39.13
2017-12-30T17:47:36.143Z,33.93
2017-12-30T17:50:02.602Z,33.77
2017-12-30T17:52:29.176Z,41.93
2017-12-30T17:54:55.797Z,29.07
2017-12-30T17:57:22.319Z,39.53
2017-12-30T17:59:49.015Z,33.07
2017-12-30T18:02:15.620Z,40.00
2017-12-30T18:04:42.334Z,26.23
2017-12-30T18:07:09.308Z,36.77
2017-12-30T18:09:35.992Z,40.87
2017-12-30T18:12:02.414Z,41.77
2017-12-30T18:14:28.952Z,37.40
2017-12-30T18:16:55.561Z,38.30
2017-12-30T18:19:22.951Z,35.53
2017-12-30T18:21:50.224Z,44.50
2017-12-30T18:24:20.476Z,40.00
2017-12-30T18:26:46.908Z,30.07
2017-12-30T18:29:13.809Z,38.63
2017-12-30T18:31:40.368Z,43.10
2017-12-30T18:34:07.910Z,44.30
2017-12-30T18:36:34.320Z,45.80
2017-12-30T18:39:00.747Z,46.23
2017-12-30T18:41:27.286Z,24.70
2017-12-30T18:43:53.914Z,37.20
2017-12-30T18:46:20.456Z,48.97
2017-12-30T18:48:47.045Z,42.73
2017-12-30T18:53:46.542Z,51.17
2017-12-30T18:56:13.236Z,41.10
2017-12-30T18:58:39.848Z,40.93
2017-12-30T19:01:06.355Z,46.53
2017-12-30T19:03:33.031Z,46.87
2017-12-30T19:05:59.697Z,42.57
2017-12-30T19:08:26.693Z,36.77
2017-12-30T19:10:53.252Z,37.93
2017-12-30T19:13:19.782Z,43.33
2017-12-30T19:15:49.651Z,37.97
2017-12-30T19:18:16.232Z,37.73
2017-12-30T19:20:42.787Z,50.20
2017-12-30T19:23:09.469Z,44.03
2017-12-30T19:25:36.096Z,47.83
2017-12-30T19:28:02.714Z,46.43
2017-12-30T19:30:30.022Z,48.03
2017-12-30T19:32:56.387Z,42.67
2017-12-30T19:35:23.021Z,49.73
2017-12-30T19:37:50.465Z,44.20
2017-12-30T19:40:17.115Z,47.53
2017-12-30T19:42:43.674Z,46.20
2017-12-30T19:45:10.072Z,50.57
2017-12-30T19:47:36.284Z,46.80
2017-12-30T19:50:02.491Z,47.97
2017-12-30T19:52:28.680Z,47.13
2017-12-30T19:54:54.919Z,50.00
2017-12-30T19:57:21.837Z,51.53
2017-12-30T19:59:48.061Z,55.40
2017-12-30T20:02:14.224Z,48.90
2017-12-30T20:04:40.401Z,51.73
2017-12-30T20:07:06.648Z,43.30
2017-12-30T20:09:32.855Z,50.70
2017-12-30T20:11:59.060Z,50.97
2017-12-30T20:14:25.301Z,58.43
2017-12-30T20:16:51.521Z,40.90
2017-12-30T20:19:17.705Z,40.73
2017-12-30T20:21:43.950Z,50.53
2017-12-30T20:24:10.153Z,55.60
2017-12-30T20:26:36.389Z,65.07
2017-12-30T20:29:02.583Z,63.90
2017-12-30T20:31:28.808Z,53.10
2017-12-30T20:33:55.575Z,53.50
2017-12-30T20:36:25.053Z,59.67
2017-12-30T20:38:51.256Z,54.83
2017-12-30T20:41:17.471Z,49.93
2017-12-30T20:43:43.665Z,48.53
2017-12-30T20:46:09.829Z,60.67
2017-12-30T20:48:36.054Z,51.53
2017-12-30T20:51:02.302Z,47.67
2017-12-30T20:53:28.512Z,46.67
2017-12-30T20:55:54.776Z,52.10
2017-12-30T20:58:21.134Z,51.37
2017-12-30T21:00:48.253Z,53.17
2017-12-30T21:03:14.536Z,50.47
2017-12-30T21:05:40.774Z,52.87
2017-12-30T21:08:07.013Z,43.20
2017-12-30T21:10:33.985Z,53.20
2017-12-30T21:13:00.319Z,54.17
2017-12-30T21:15:26.596Z,54.83
2017-12-30T21:17:52.826Z,46.23
2017-12-30T21:20:19.022Z,42.50
2017-12-30T21:22:45.222Z,50.07
2017-12-30T21:25:11.409Z,48.50
2017-12-30T21:27:37.642Z,65.13
2017-12-30T21:30:03.908Z,39.50
2017-12-30T21:32:30.062Z,36.60
2017-12-30T21:34:56.238Z,35.87
2017-12-30T21:37:22.466Z,40.67
2017-12-30T21:39:48.750Z,48.17
2017-12-30T21:42:14.925Z,31.33
2017-12-30T21:44:41.104Z,47.07
2017-12-30T21:47:07.293Z,47.20
2017-12-30T21:49:33.497Z,43.43
2017-12-30T21:51:59.712Z,41.87
2017-12-30T21:54:25.947Z,39.27
2017-12-30T21:56:52.117Z,41.17
2017-12-30T21:59:18.321Z,44.47
2017-12-30T22:01:44.535Z,50.97
2017-12-30T22:04:10.730Z,40.83
2017-12-30T22:06:36.940Z,43.33
2017-12-30T22:09:03.231Z,44.63
2017-12-30T22:11:30.206Z,39.47
2017-12-30T22:13:56.400Z,40.73
2017-12-30T22:16:22.575Z,44.80
2017-12-30T22:18:48.747Z,46.33
2017-12-30T22:21:14.924Z,36.27
2017-12-30T22:23:41.171Z,46.90
2017-12-30T22:26:07.369Z,39.30
2017-12-30T22:28:33.590Z,47.70
2017-12-30T22:30:59.880Z,53.27
2017-12-30T22:33:26.072Z,42.23
2017-12-30T22:36:07.214Z,43.07
2017-12-30T22:38:33.430Z,52.63
2017-12-30T22:40:59.634Z,42.43
2017-12-30T22:43:25.813Z,38.50
2017-12-30T22:45:52.023Z,43.37
2017-12-30T22:48:18.361Z,49.13
2017-12-30T22:50:44.659Z,39.73
2017-12-30T22:53:11.029Z,43.50
2017-12-30T22:55:37.211Z,42.93
2017-12-30T22:58:03.450Z,38.50
2017-12-30T23:00:31.667Z,46.37
2017-12-30T23:02:58.662Z,44.73
2017-12-30T23:05:25.172Z,37.57
2017-12-30T23:07:51.482Z,42.87
2017-12-30T23:10:17.853Z,46.10
2017-12-30T23:12:44.165Z,38.87
2017-12-30T23:15:10.506Z,43.43
2017-12-30T23:17:36.765Z,44.50
2017-12-30T23:20:03.737Z,45.47
2017-12-30T23:22:30.052Z,44.60
2017-12-30T23:24:56.296Z,44.60
2017-12-30T23:27:22.559Z,45.67
2017-12-30T23:29:48.766Z,46.87
2017-12-30T23:32:14.982Z,46.20
2017-12-30T23:34:41.194Z,40.77
2017-12-30T23:37:07.413Z,42.83
2017-12-30T23:39:33.610Z,45.17
2017-12-30T23:44:38.552Z,46.47
2017-12-30T23:47:04.715Z,37.57
2017-12-30T23:49:30.932Z,46.37
2017-12-30T23:51:57.121Z,46.03
2017-12-30T23:54:23.328Z,44.63
2017-12-30T23:56:49.586Z,39.50
2017-12-30T23:59:16.600Z,36.80
